sensor_id;sensor_type;location;lat;lon;timestamp;pressure;altitude;pressure_sealevel;temperature;humidity
2681;BME280;1350;42.134;24.708;2023-04-28T00:00:30;99606.78;;;11.44;60.15
2681;BME280;1350;42.134;24.708;2023-04-28T00:02:57;99614.94;;;11.41;59.76
2681;BME280;1350;42.134;24.708;2023-04-28T00:05:24;99600.69;;;11.42;58.97
2681;BME280;1350;42.134;24.708;2023-04-28T00:07:52;99610.31;;;11.45;58.73
2681;BME280;1350;42.134;24.708;2023-04-28T00:10:19;99608.84;;;11.39;59.20
2681;BME280;1350;42.134;24.708;2023-04-28T00:12:46;99597.91;;;11.45;59.41
2681;BME280;1350;42.134;24.708;2023-04-28T00:15:12;99611.41;;;11.41;59.16
2681;BME280;1350;42.134;24.708;2023-04-28T00:17:39;99606.44;;;11.50;58.88
2681;BME280;1350;42.134;24.708;2023-04-28T00:20:07;99604.13;;;11.44;59.11
2681;BME280;1350;42.134;24.708;2023-04-28T00:22:34;99611.50;;;11.39;59.00
2681;BME280;1350;42.134;24.708;2023-04-28T00:25:02;99603.69;;;11.36;59.66
2681;BME280;1350;42.134;24.708;2023-04-28T00:27:29;99608.34;;;11.33;59.09
2681;BME280;1350;42.134;24.708;2023-04-28T00:29:58;99602.59;;;11.25;59.08
2681;BME280;1350;42.134;24.708;2023-04-28T00:32:24;99608.84;;;11.24;58.45
2681;BME280;1350;42.134;24.708;2023-04-28T00:34:51;99609.97;;;11.35;57.27
2681;BME280;1350;42.134;24.708;2023-04-28T00:37:18;99607.63;;;11.29;56.66
2681;BME280;1350;42.134;24.708;2023-04-28T00:39:45;99601.63;;;11.26;57.00
2681;BME280;1350;42.134;24.708;2023-04-28T00:42:13;99603.53;;;11.24;57.58
2681;BME280;1350;42.134;24.708;2023-04-28T00:44:40;99599.22;;;11.21;57.09
2681;BME280;1350;42.134;24.708;2023-04-28T00:47:08;99598.22;;;11.24;57.26
2681;BME280;1350;42.134;24.708;2023-04-28T00:49:35;99604.78;;;11.17;57.64
2681;BME280;1350;42.134;24.708;2023-04-28T00:52:04;99603.25;;;11.13;57.33
2681;BME280;1350;42.134;24.708;2023-04-28T00:54:31;99598.44;;;11.04;58.22
2681;BME280;1350;42.134;24.708;2023-04-28T00:56:58;99598.53;;;11.02;59.25
2681;BME280;1350;42.134;24.708;2023-04-28T00:59:28;99606.66;;;10.99;58.78
2681;BME280;1350;42.134;24.708;2023-04-28T01:01:55;99595.25;;;10.97;59.08
2681;BME280;1350;42.134;24.708;2023-04-28T01:04:22;99604.31;;;10.93;58.89
2681;BME280;1350;42.134;24.708;2023-04-28T01:06:51;99604.72;;;10.86;59.52
2681;BME280;1350;42.134;24.708;2023-04-28T01:09:19;99603.25;;;10.80;59.53
2681;BME280;1350;42.134;24.708;2023-04-28T01:11:45;99603.97;;;10.84;59.84
2681;BME280;1350;42.134;24.708;2023-04-28T01:14:12;99606.94;;;10.78;60.32
2681;BME280;1350;42.134;24.708;2023-04-28T01:16:41;99600.63;;;10.63;60.62
2681;BME280;1350;42.134;24.708;2023-04-28T01:19:12;99614.84;;;10.62;61.07
2681;BME280;1350;42.134;24.708;2023-04-28T01:21:41;99609.94;;;10.55;61.62
2681;BME280;1350;42.134;24.708;2023-04-28T01:24:09;99610.47;;;10.44;62.29
2681;BME280;1350;42.134;24.708;2023-04-28T01:26:35;99615.44;;;10.50;62.06
2681;BME280;1350;42.134;24.708;2023-04-28T01:29:02;99618.97;;;10.34;62.65
2681;BME280;1350;42.134;24.708;2023-04-28T01:31:29;99609.22;;;10.34;62.18
2681;BME280;1350;42.134;24.708;2023-04-28T01:33:56;99596.28;;;10.28;62.67
2681;BME280;1350;42.134;24.708;2023-04-28T01:36:23;99606.19;;;10.24;62.45
2681;BME280;1350;42.134;24.708;2023-04-28T01:38:50;99602.66;;;10.24;62.05
2681;BME280;1350;42.134;24.708;2023-04-28T01:41:18;99606.97;;;10.27;61.61
2681;BME280;1350;42.134;24.708;2023-04-28T01:43:45;99603.63;;;10.23;61.34
2681;BME280;1350;42.134;24.708;2023-04-28T01:46:12;99615.47;;;10.16;61.84
2681;BME280;1350;42.134;24.708;2023-04-28T01:48:38;99613.97;;;10.10;61.71
2681;BME280;1350;42.134;24.708;2023-04-28T01:51:05;99614.91;;;10.09;62.19
2681;BME280;1350;42.134;24.708;2023-04-28T01:53:32;99611.38;;;10.09;62.08
2681;BME280;1350;42.134;24.708;2023-04-28T01:55:58;99621.38;;;10.02;61.99
2681;BME280;1350;42.134;24.708;2023-04-28T01:58:26;99622.19;;;10.04;62.14
2681;BME280;1350;42.134;24.708;2023-04-28T02:00:53;99616.97;;;10.03;61.78
2681;BME280;1350;42.134;24.708;2023-04-28T02:03:20;99621.00;;;9.93;62.45
2681;BME280;1350;42.134;24.708;2023-04-28T02:05:47;99624.78;;;9.87;62.19
2681;BME280;1350;42.134;24.708;2023-04-28T02:08:13;99622.94;;;9.89;62.05
2681;BME280;1350;42.134;24.708;2023-04-28T02:10:40;99635.13;;;9.75;62.72
2681;BME280;1350;42.134;24.708;2023-04-28T02:13:07;99626.41;;;9.73;62.54
2681;BME280;1350;42.134;24.708;2023-04-28T02:15:38;99629.97;;;9.72;62.79
2681;BME280;1350;42.134;24.708;2023-04-28T02:18:05;99636.06;;;9.74;62.60
2681;BME280;1350;42.134;24.708;2023-04-28T02:20:32;99636.13;;;9.72;62.73
2681;BME280;1350;42.134;24.708;2023-04-28T02:22:58;99635.41;;;9.69;62.57
2681;BME280;1350;42.134;24.708;2023-04-28T02:25:25;99639.72;;;9.71;62.77
2681;BME280;1350;42.134;24.708;2023-04-28T02:27:52;99640.94;;;9.64;62.76
2681;BME280;1350;42.134;24.708;2023-04-28T02:30:19;99651.53;;;9.64;62.59
2681;BME280;1350;42.134;24.708;2023-04-28T02:32:48;99656.44;;;9.53;62.73
2681;BME280;1350;42.134;24.708;2023-04-28T02:35:15;99657.47;;;9.51;62.30
2681;BME280;1350;42.134;24.708;2023-04-28T02:37:41;99654.69;;;9.54;62.02
2681;BME280;1350;42.134;24.708;2023-04-28T02:40:09;99663.91;;;9.64;61.24
2681;BME280;1350;42.134;24.708;2023-04-28T02:42:36;99664.25;;;9.56;61.49
2681;BME280;1350;42.134;24.708;2023-04-28T02:45:03;99658.91;;;9.58;61.16
2681;BME280;1350;42.134;24.708;2023-04-28T02:47:30;99670.56;;;9.54;61.42
2681;BME280;1350;42.134;24.708;2023-04-28T02:49:58;99668.19;;;9.48;61.24
2681;BME280;1350;42.134;24.708;2023-04-28T02:52:25;99669.72;;;9.35;61.88
2681;BME280;1350;42.134;24.708;2023-04-28T02:54:51;99670.47;;;9.37;61.58
2681;BME280;1350;42.134;24.708;2023-04-28T02:57:21;99675.78;;;9.37;61.35
2681;BME280;1350;42.134;24.708;2023-04-28T02:59:48;99677.91;;;9.29;61.49
2681;BME280;1350;42.134;24.708;2023-04-28T03:02:15;99672.25;;;9.18;61.38
2681;BME280;1350;42.134;24.708;2023-04-28T03:04:42;99676.34;;;9.25;61.23
2681;BME280;1350;42.134;24.708;2023-04-28T03:07:10;99664.03;;;9.24;61.51
2681;BME280;1350;42.134;24.708;2023-04-28T03:09:36;99672.41;;;9.15;62.00
2681;BME280;1350;42.134;24.708;2023-04-28T03:12:03;99659.25;;;9.13;61.19
2681;BME280;1350;42.134;24.708;2023-04-28T03:14:30;99659.88;;;9.18;61.17
2681;BME280;1350;42.134;24.708;2023-04-28T03:16:57;99660.28;;;9.09;61.18
2681;BME280;1350;42.134;24.708;2023-04-28T03:19:24;99668.09;;;9.12;60.85
2681;BME280;1350;42.134;24.708;2023-04-28T03:21:50;99665.50;;;9.11;61.19
2681;BME280;1350;42.134;24.708;2023-04-28T03:24:18;99667.56;;;9.04;60.96
2681;BME280;1350;42.134;24.708;2023-04-28T03:26:46;99656.16;;;9.04;61.50
2681;BME280;1350;42.134;24.708;2023-04-28T03:29:12;99672.16;;;9.01;61.58
2681;BME280;1350;42.134;24.708;2023-04-28T03:31:39;99675.16;;;8.93;61.53
2681;BME280;1350;42.134;24.708;2023-04-28T03:34:06;99677.59;;;8.98;61.57
2681;BME280;1350;42.134;24.708;2023-04-28T03:36:32;99680.84;;;9.03;61.14
2681;BME280;1350;42.134;24.708;2023-04-28T03:38:59;99689.13;;;8.95;61.74
2681;BME280;1350;42.134;24.708;2023-04-28T03:41:27;99696.59;;;9.06;61.86
2681;BME280;1350;42.134;24.708;2023-04-28T03:43:54;99708.06;;;9.25;61.25
2681;BME280;1350;42.134;24.708;2023-04-28T03:46:21;99712.59;;;9.41;60.74
2681;BME280;1350;42.134;24.708;2023-04-28T03:48:48;99711.72;;;9.61;60.15
2681;BME280;1350;42.134;24.708;2023-04-28T03:51:15;99722.41;;;9.76;59.88
2681;BME280;1350;42.134;24.708;2023-04-28T03:53:41;99725.00;;;9.96;59.50
2681;BME280;1350;42.134;24.708;2023-04-28T03:56:08;99725.94;;;10.14;58.35
2681;BME280;1350;42.134;24.708;2023-04-28T03:58:36;99728.00;;;10.26;57.89
2681;BME280;1350;42.134;24.708;2023-04-28T04:01:03;99734.53;;;10.55;57.34
2681;BME280;1350;42.134;24.708;2023-04-28T04:03:30;99747.78;;;10.55;57.09
2681;BME280;1350;42.134;24.708;2023-04-28T04:05:57;99754.50;;;10.79;56.93
2681;BME280;1350;42.134;24.708;2023-04-28T04:08:24;99746.56;;;10.96;56.13
2681;BME280;1350;42.134;24.708;2023-04-28T04:10:51;99742.16;;;11.12;55.69
2681;BME280;1350;42.134;24.708;2023-04-28T04:13:19;99751.38;;;11.05;55.74
2681;BME280;1350;42.134;24.708;2023-04-28T04:15:47;99756.75;;;11.37;55.51
2681;BME280;1350;42.134;24.708;2023-04-28T04:18:14;99759.13;;;11.59;54.81
2681;BME280;1350;42.134;24.708;2023-04-28T04:20:41;99761.56;;;11.63;54.47
2681;BME280;1350;42.134;24.708;2023-04-28T04:23:07;99763.09;;;11.67;53.85
2681;BME280;1350;42.134;24.708;2023-04-28T04:25:36;99758.78;;;11.98;53.68
2681;BME280;1350;42.134;24.708;2023-04-28T04:28:03;99768.47;;;12.30;53.15
2681;BME280;1350;42.134;24.708;2023-04-28T04:30:30;99769.66;;;12.55;52.59
2681;BME280;1350;42.134;24.708;2023-04-28T04:32:58;99772.56;;;12.66;52.18
2681;BME280;1350;42.134;24.708;2023-04-28T04:35:25;99775.06;;;13.14;51.15
2681;BME280;1350;42.134;24.708;2023-04-28T04:37:52;99769.81;;;13.27;50.24
2681;BME280;1350;42.134;24.708;2023-04-28T04:40:18;99770.84;;;12.95;50.43
2681;BME280;1350;42.134;24.708;2023-04-28T04:42:45;99778.56;;;12.99;50.89
2681;BME280;1350;42.134;24.708;2023-04-28T04:45:12;99779.31;;;13.17;49.99
2681;BME280;1350;42.134;24.708;2023-04-28T04:47:39;99783.03;;;13.28;49.51
2681;BME280;1350;42.134;24.708;2023-04-28T04:50:08;99787.16;;;13.34;49.37
2681;BME280;1350;42.134;24.708;2023-04-28T04:52:34;99785.81;;;13.27;49.52
2681;BME280;1350;42.134;24.708;2023-04-28T04:55:01;99790.78;;;13.47;49.04
2681;BME280;1350;42.134;24.708;2023-04-28T04:57:28;99798.25;;;13.56;48.67
2681;BME280;1350;42.134;24.708;2023-04-28T04:59:55;99797.66;;;13.51;48.39
2681;BME280;1350;42.134;24.708;2023-04-28T05:02:22;99803.94;;;13.64;48.29
2681;BME280;1350;42.134;24.708;2023-04-28T05:04:48;99804.63;;;14.10;49.32
2681;BME280;1350;42.134;24.708;2023-04-28T05:07:17;99807.25;;;14.38;47.15
2681;BME280;1350;42.134;24.708;2023-04-28T05:09:43;99812.28;;;14.56;47.74
2681;BME280;1350;42.134;24.708;2023-04-28T05:12:10;99815.75;;;14.44;46.71
2681;BME280;1350;42.134;24.708;2023-04-28T05:14:37;99813.47;;;14.38;46.80
2681;BME280;1350;42.134;24.708;2023-04-28T05:17:03;99818.91;;;14.77;46.69
2681;BME280;1350;42.134;24.708;2023-04-28T05:19:30;99813.16;;;14.83;46.77
2681;BME280;1350;42.134;24.708;2023-04-28T05:21:57;99822.97;;;15.09;46.08
2681;BME280;1350;42.134;24.708;2023-04-28T05:24:26;99831.31;;;15.57;45.05
2681;BME280;1350;42.134;24.708;2023-04-28T05:26:53;99821.69;;;15.42;45.10
2681;BME280;1350;42.134;24.708;2023-04-28T05:29:23;99815.69;;;15.38;44.57
2681;BME280;1350;42.134;24.708;2023-04-28T05:31:49;99822.47;;;15.81;46.30
2681;BME280;1350;42.134;24.708;2023-04-28T05:34:16;99826.50;;;15.87;47.20
2681;BME280;1350;42.134;24.708;2023-04-28T05:36:43;99825.22;;;16.17;45.92
2681;BME280;1350;42.134;24.708;2023-04-28T05:39:10;99827.72;;;16.56;43.65
2681;BME280;1350;42.134;24.708;2023-04-28T05:41:38;99824.69;;;16.73;43.27
2681;BME280;1350;42.134;24.708;2023-04-28T05:44:05;99828.94;;;16.52;42.28
2681;BME280;1350;42.134;24.708;2023-04-28T05:46:31;99830.22;;;16.47;42.56
2681;BME280;1350;42.134;24.708;2023-04-28T05:48:58;99830.03;;;16.37;43.08
2681;BME280;1350;42.134;24.708;2023-04-28T05:51:25;99830.69;;;16.77;47.01
2681;BME280;1350;42.134;24.708;2023-04-28T05:53:52;99833.28;;;17.37;47.27
2681;BME280;1350;42.134;24.708;2023-04-28T05:56:19;99828.16;;;17.34;43.83
2681;BME280;1350;42.134;24.708;2023-04-28T05:58:47;99842.41;;;17.11;43.98
2681;BME280;1350;42.134;24.708;2023-04-28T06:01:15;99846.63;;;16.78;44.11
2681;BME280;1350;42.134;24.708;2023-04-28T06:03:42;99836.22;;;16.87;44.49
2681;BME280;1350;42.134;24.708;2023-04-28T06:06:09;99845.53;;;16.81;42.76
2681;BME280;1350;42.134;24.708;2023-04-28T06:08:36;99841.56;;;16.87;42.78
2681;BME280;1350;42.134;24.708;2023-04-28T06:11:03;99833.03;;;17.05;43.39
2681;BME280;1350;42.134;24.708;2023-04-28T06:13:30;99846.75;;;16.77;42.08
2681;BME280;1350;42.134;24.708;2023-04-28T06:15:58;99841.47;;;16.88;41.73
2681;BME280;1350;42.134;24.708;2023-04-28T06:18:25;99843.31;;;16.75;41.90
2681;BME280;1350;42.134;24.708;2023-04-28T06:20:52;99844.63;;;16.93;42.46
2681;BME280;1350;42.134;24.708;2023-04-28T06:23:19;99844.50;;;17.76;42.18
2681;BME280;1350;42.134;24.708;2023-04-28T06:25:45;99847.00;;;18.01;41.57
2681;BME280;1350;42.134;24.708;2023-04-28T06:28:13;99844.56;;;18.20;40.72
2681;BME280;1350;42.134;24.708;2023-04-28T06:30:40;99840.53;;;18.59;40.58
2681;BME280;1350;42.134;24.708;2023-04-28T06:33:08;99847.91;;;18.46;39.67
2681;BME280;1350;42.134;24.708;2023-04-28T06:35:34;99842.22;;;18.16;40.64
2681;BME280;1350;42.134;24.708;2023-04-28T06:38:03;99845.91;;;18.15;40.32
2681;BME280;1350;42.134;24.708;2023-04-28T06:40:30;99847.97;;;18.11;40.95
2681;BME280;1350;42.134;24.708;2023-04-28T06:42:57;99842.44;;;18.90;40.37
2681;BME280;1350;42.134;24.708;2023-04-28T06:45:23;99849.31;;;19.57;39.25
2681;BME280;1350;42.134;24.708;2023-04-28T06:47:50;99842.28;;;19.45;38.71
2681;BME280;1350;42.134;24.708;2023-04-28T06:50:21;99844.31;;;19.32;38.47
2681;BME280;1350;42.134;24.708;2023-04-28T06:52:48;99855.69;;;19.25;38.71
2681;BME280;1350;42.134;24.708;2023-04-28T06:55:15;99846.34;;;19.40;38.85
2681;BME280;1350;42.134;24.708;2023-04-28T06:57:42;99845.72;;;19.68;38.47
2681;BME280;1350;42.134;24.708;2023-04-28T07:00:10;99846.56;;;19.48;38.04
2681;BME280;1350;42.134;24.708;2023-04-28T07:02:37;99844.38;;;20.24;37.98
2681;BME280;1350;42.134;24.708;2023-04-28T07:05:04;99840.50;;;20.47;36.87
2681;BME280;1350;42.134;24.708;2023-04-28T07:07:32;99844.75;;;20.40;36.83
2681;BME280;1350;42.134;24.708;2023-04-28T07:09:59;99838.00;;;20.25;36.42
2681;BME280;1350;42.134;24.708;2023-04-28T07:12:26;99834.53;;;19.93;36.41
2681;BME280;1350;42.134;24.708;2023-04-28T07:14:53;99839.75;;;19.85;36.60
2681;BME280;1350;42.134;24.708;2023-04-28T07:17:20;99837.28;;;20.02;36.69
2681;BME280;1350;42.134;24.708;2023-04-28T07:19:47;99845.84;;;20.07;36.87
2681;BME280;1350;42.134;24.708;2023-04-28T07:22:15;99842.88;;;20.10;36.14
2681;BME280;1350;42.134;24.708;2023-04-28T07:24:44;99832.78;;;20.33;35.96
2681;BME280;1350;42.134;24.708;2023-04-28T07:27:11;99835.00;;;20.49;35.06
2681;BME280;1350;42.134;24.708;2023-04-28T07:29:38;99842.75;;;20.72;35.22
2681;BME280;1350;42.134;24.708;2023-04-28T07:32:04;99838.09;;;20.93;36.27
2681;BME280;1350;42.134;24.708;2023-04-28T07:34:33;99842.84;;;21.48;34.83
2681;BME280;1350;42.134;24.708;2023-04-28T07:37:00;99833.19;;;21.84;34.83
2681;BME280;1350;42.134;24.708;2023-04-28T07:39:27;99833.84;;;22.05;34.82
2681;BME280;1350;42.134;24.708;2023-04-28T07:41:55;99837.06;;;22.28;35.35
2681;BME280;1350;42.134;24.708;2023-04-28T07:44:23;99840.41;;;22.03;34.67
2681;BME280;1350;42.134;24.708;2023-04-28T07:46:50;99826.16;;;22.10;34.35
2681;BME280;1350;42.134;24.708;2023-04-28T07:49:17;99820.50;;;22.40;33.50
2681;BME280;1350;42.134;24.708;2023-04-28T07:51:43;99827.50;;;21.68;33.85
2681;BME280;1350;42.134;24.708;2023-04-28T07:54:10;99836.50;;;21.49;34.16
2681;BME280;1350;42.134;24.708;2023-04-28T07:56:37;99830.34;;;21.95;33.81
2681;BME280;1350;42.134;24.708;2023-04-28T07:59:05;99825.34;;;22.46;35.00
2681;BME280;1350;42.134;24.708;2023-04-28T08:01:32;99824.00;;;22.60;34.36
2681;BME280;1350;42.134;24.708;2023-04-28T08:03:59;99816.81;;;22.41;33.64
2681;BME280;1350;42.134;24.708;2023-04-28T08:06:29;99824.84;;;23.05;33.66
2681;BME280;1350;42.134;24.708;2023-04-28T08:08:56;99808.84;;;23.39;33.15
2681;BME280;1350;42.134;24.708;2023-04-28T08:11:22;99811.13;;;23.51;32.66
2681;BME280;1350;42.134;24.708;2023-04-28T08:13:51;99816.50;;;23.86;31.69
2681;BME280;1350;42.134;24.708;2023-04-28T08:16:20;99813.41;;;23.81;31.39
2681;BME280;1350;42.134;24.708;2023-04-28T08:18:47;99810.31;;;23.51;30.60
2681;BME280;1350;42.134;24.708;2023-04-28T08:21:14;99813.13;;;23.67;31.54
2681;BME280;1350;42.134;24.708;2023-04-28T08:23:41;99806.19;;;23.64;31.77
2681;BME280;1350;42.134;24.708;2023-04-28T08:26:07;99802.91;;;23.78;31.50
2681;BME280;1350;42.134;24.708;2023-04-28T08:28:37;99810.59;;;22.31;32.67
2681;BME280;1350;42.134;24.708;2023-04-28T08:31:10;99802.41;;;22.23;33.92
2681;BME280;1350;42.134;24.708;2023-04-28T08:33:38;99799.84;;;22.76;33.06
2681;BME280;1350;42.134;24.708;2023-04-28T08:36:10;99802.19;;;22.71;32.99
2681;BME280;1350;42.134;24.708;2023-04-28T08:38:42;99796.50;;;23.09;33.14
2681;BME280;1350;42.134;24.708;2023-04-28T08:41:09;99795.03;;;22.52;33.39
2681;BME280;1350;42.134;24.708;2023-04-28T08:43:36;99789.94;;;22.94;34.03
2681;BME280;1350;42.134;24.708;2023-04-28T08:46:06;99789.44;;;23.43;32.59
2681;BME280;1350;42.134;24.708;2023-04-28T08:48:40;99781.34;;;23.69;32.30
2681;BME280;1350;42.134;24.708;2023-04-28T08:51:07;99786.59;;;23.53;31.58
2681;BME280;1350;42.134;24.708;2023-04-28T08:53:36;99787.47;;;23.53;31.26
2681;BME280;1350;42.134;24.708;2023-04-28T08:56:05;99780.28;;;23.87;31.97
2681;BME280;1350;42.134;24.708;2023-04-28T08:58:34;99770.06;;;24.32;31.06
2681;BME280;1350;42.134;24.708;2023-04-28T09:01:01;99776.88;;;23.42;31.75
2681;BME280;1350;42.134;24.708;2023-04-28T09:03:29;99786.91;;;23.14;31.19
2681;BME280;1350;42.134;24.708;2023-04-28T09:05:57;99777.19;;;23.04;31.60
2681;BME280;1350;42.134;24.708;2023-04-28T09:08:24;99765.00;;;24.04;31.13
2681;BME280;1350;42.134;24.708;2023-04-28T09:11:05;99771.47;;;22.89;31.24
2681;BME280;1350;42.134;24.708;2023-04-28T09:13:32;99771.69;;;22.15;32.38
2681;BME280;1350;42.134;24.708;2023-04-28T09:16:00;99776.38;;;22.13;33.79
2681;BME280;1350;42.134;24.708;2023-04-28T09:18:28;99771.44;;;21.33;34.10
2681;BME280;1350;42.134;24.708;2023-04-28T09:21:04;99770.50;;;20.57;34.19
2681;BME280;1350;42.134;24.708;2023-04-28T09:23:31;99764.00;;;19.89;35.32
2681;BME280;1350;42.134;24.708;2023-04-28T09:26:00;99763.78;;;20.51;36.30
2681;BME280;1350;42.134;24.708;2023-04-28T09:28:27;99772.00;;;21.27;34.48
2681;BME280;1350;42.134;24.708;2023-04-28T09:30:54;99771.25;;;21.83;33.63
2681;BME280;1350;42.134;24.708;2023-04-28T09:33:21;99770.91;;;22.05;32.50
2681;BME280;1350;42.134;24.708;2023-04-28T09:35:48;99760.84;;;22.24;32.46
2681;BME280;1350;42.134;24.708;2023-04-28T09:38:18;99768.78;;;21.99;32.90
2681;BME280;1350;42.134;24.708;2023-04-28T09:40:53;99757.38;;;22.05;33.43
2681;BME280;1350;42.134;24.708;2023-04-28T09:43:25;99758.16;;;22.24;33.81
2681;BME280;1350;42.134;24.708;2023-04-28T09:45:53;99759.00;;;22.79;32.99
2681;BME280;1350;42.134;24.708;2023-04-28T09:48:27;99748.75;;;23.35;33.35
2681;BME280;1350;42.134;24.708;2023-04-28T09:50:55;99741.84;;;23.23;33.18
2681;BME280;1350;42.134;24.708;2023-04-28T09:53:25;99749.06;;;22.52;33.92
2681;BME280;1350;42.134;24.708;2023-04-28T09:55:53;99742.53;;;22.18;34.02
2681;BME280;1350;42.134;24.708;2023-04-28T09:58:21;99740.22;;;22.50;34.03
2681;BME280;1350;42.134;24.708;2023-04-28T10:00:51;99735.31;;;22.36;34.05
2681;BME280;1350;42.134;24.708;2023-04-28T10:03:21;99730.84;;;22.54;34.22
2681;BME280;1350;42.134;24.708;2023-04-28T10:05:48;99725.78;;;22.15;34.40
2681;BME280;1350;42.134;24.708;2023-04-28T10:08:17;99734.38;;;20.97;35.89
2681;BME280;1350;42.134;24.708;2023-04-28T10:10:47;99730.47;;;21.66;35.36
2681;BME280;1350;42.134;24.708;2023-04-28T10:13:15;99716.47;;;22.00;34.75
2681;BME280;1350;42.134;24.708;2023-04-28T10:15:42;99721.13;;;21.42;35.54
2681;BME280;1350;42.134;24.708;2023-04-28T10:18:10;99722.94;;;21.70;34.08
2681;BME280;1350;42.134;24.708;2023-04-28T10:20:37;99720.84;;;21.54;34.06
2681;BME280;1350;42.134;24.708;2023-04-28T10:23:21;99719.75;;;20.90;33.83
2681;BME280;1350;42.134;24.708;2023-04-28T10:25:55;99715.91;;;20.74;34.03
2681;BME280;1350;42.134;24.708;2023-04-28T10:28:24;99714.00;;;20.36;34.27
2681;BME280;1350;42.134;24.708;2023-04-28T10:31:10;99704.09;;;20.06;34.58
2681;BME280;1350;42.134;24.708;2023-04-28T10:33:38;99702.09;;;20.29;35.30
2681;BME280;1350;42.134;24.708;2023-04-28T10:36:05;99694.72;;;20.22;34.47
2681;BME280;1350;42.134;24.708;2023-04-28T10:38:32;99691.72;;;20.25;35.10
2681;BME280;1350;42.134;24.708;2023-04-28T10:41:00;99702.13;;;20.39;35.16
2681;BME280;1350;42.134;24.708;2023-04-28T10:43:37;99688.69;;;21.05;34.30
2681;BME280;1350;42.134;24.708;2023-04-28T10:46:06;99684.63;;;22.03;34.04
2681;BME280;1350;42.134;24.708;2023-04-28T10:48:55;99691.88;;;21.56;34.56
2681;BME280;1350;42.134;24.708;2023-04-28T10:51:28;99683.59;;;21.77;34.23
2681;BME280;1350;42.134;24.708;2023-04-28T10:54:23;99684.59;;;22.30;33.19
2681;BME280;1350;42.134;24.708;2023-04-28T10:57:16;99678.94;;;22.68;33.13
2681;BME280;1350;42.134;24.708;2023-04-28T10:59:43;99680.50;;;23.06;32.73
2681;BME280;1350;42.134;24.708;2023-04-28T11:02:38;99689.72;;;23.21;32.83
2681;BME280;1350;42.134;24.708;2023-04-28T11:05:15;99681.41;;;22.62;32.32
2681;BME280;1350;42.134;24.708;2023-04-28T11:11:20;99679.56;;;21.91;32.42
2681;BME280;1350;42.134;24.708;2023-04-28T11:13:50;99677.28;;;21.40;33.47
2681;BME280;1350;42.134;24.708;2023-04-28T11:16:20;99671.09;;;20.63;35.04
2681;BME280;1350;42.134;24.708;2023-04-28T11:18:58;99677.88;;;21.34;33.84
2681;BME280;1350;42.134;24.708;2023-04-28T11:21:28;99680.59;;;21.15;33.20
2681;BME280;1350;42.134;24.708;2023-04-28T11:23:56;99681.97;;;21.38;33.43
2681;BME280;1350;42.134;24.708;2023-04-28T11:26:23;99667.31;;;21.50;32.89
2681;BME280;1350;42.134;24.708;2023-04-28T11:28:52;99662.91;;;21.95;32.90
2681;BME280;1350;42.134;24.708;2023-04-28T11:31:20;99661.09;;;22.58;31.63
2681;BME280;1350;42.134;24.708;2023-04-28T11:33:50;99646.66;;;22.67;33.33
2681;BME280;1350;42.134;24.708;2023-04-28T11:36:22;99654.75;;;22.05;33.63
2681;BME280;1350;42.134;24.708;2023-04-28T11:38:49;99651.84;;;21.89;34.32
2681;BME280;1350;42.134;24.708;2023-04-28T11:41:16;99654.72;;;21.68;33.86
2681;BME280;1350;42.134;24.708;2023-04-28T11:43:43;99652.47;;;21.63;33.95
2681;BME280;1350;42.134;24.708;2023-04-28T11:46:15;99648.38;;;21.59;33.85
2681;BME280;1350;42.134;24.708;2023-04-28T11:48:42;99641.69;;;21.17;33.80
2681;BME280;1350;42.134;24.708;2023-04-28T11:51:09;99638.22;;;21.34;34.64
2681;BME280;1350;42.134;24.708;2023-04-28T11:53:41;99638.09;;;21.36;34.27
2681;BME280;1350;42.134;24.708;2023-04-28T11:56:08;99642.56;;;21.54;33.06
2681;BME280;1350;42.134;24.708;2023-04-28T11:58:38;99636.03;;;21.57;33.21
2681;BME280;1350;42.134;24.708;2023-04-28T12:01:08;99635.09;;;21.39;34.69
2681;BME280;1350;42.134;24.708;2023-04-28T12:03:43;99632.16;;;21.79;33.70
2681;BME280;1350;42.134;24.708;2023-04-28T12:06:10;99629.94;;;21.55;34.38
2681;BME280;1350;42.134;24.708;2023-04-28T12:08:36;99622.03;;;21.34;33.99
2681;BME280;1350;42.134;24.708;2023-04-28T12:11:06;99616.41;;;21.28;33.43
2681;BME280;1350;42.134;24.708;2023-04-28T12:13:34;99610.19;;;21.54;34.04
2681;BME280;1350;42.134;24.708;2023-04-28T12:16:03;99604.53;;;21.85;33.44
2681;BME280;1350;42.134;24.708;2023-04-28T12:18:31;99604.72;;;21.37;34.19
2681;BME280;1350;42.134;24.708;2023-04-28T12:20:59;99602.09;;;21.18;33.89
2681;BME280;1350;42.134;24.708;2023-04-28T12:23:29;99593.19;;;20.89;33.45
2681;BME280;1350;42.134;24.708;2023-04-28T12:25:57;99599.75;;;20.39;35.04
2681;BME280;1350;42.134;24.708;2023-04-28T12:28:35;99588.41;;;20.54;33.09
2681;BME280;1350;42.134;24.708;2023-04-28T12:31:03;99582.75;;;20.57;33.12
2681;BME280;1350;42.134;24.708;2023-04-28T12:33:30;99581.28;;;19.56;34.89
2681;BME280;1350;42.134;24.708;2023-04-28T12:36:03;99573.22;;;19.56;34.68
2681;BME280;1350;42.134;24.708;2023-04-28T12:38:31;99577.69;;;19.37;34.46
2681;BME280;1350;42.134;24.708;2023-04-28T12:40:58;99584.25;;;19.03;34.27
2681;BME280;1350;42.134;24.708;2023-04-28T12:43:27;99580.41;;;19.26;34.77
2681;BME280;1350;42.134;24.708;2023-04-28T12:46:08;99573.16;;;19.47;34.25
2681;BME280;1350;42.134;24.708;2023-04-28T12:48:39;99567.56;;;19.59;34.30
2681;BME280;1350;42.134;24.708;2023-04-28T12:51:07;99560.38;;;19.30;35.32
2681;BME280;1350;42.134;24.708;2023-04-28T12:53:33;99565.03;;;19.28;34.58
2681;BME280;1350;42.134;24.708;2023-04-28T12:56:00;99559.25;;;18.82;35.60
2681;BME280;1350;42.134;24.708;2023-04-28T12:58:27;99554.66;;;19.23;35.72
2681;BME280;1350;42.134;24.708;2023-04-28T13:00:54;99541.41;;;19.71;35.65
2681;BME280;1350;42.134;24.708;2023-04-28T13:03:21;99536.19;;;20.07;35.24
2681;BME280;1350;42.134;24.708;2023-04-28T13:05:48;99540.47;;;20.48;35.46
2681;BME280;1350;42.134;24.708;2023-04-28T13:08:17;99534.28;;;19.70;37.13
2681;BME280;1350;42.134;24.708;2023-04-28T13:10:44;99530.50;;;19.33;37.24
2681;BME280;1350;42.134;24.708;2023-04-28T13:13:11;99523.28;;;19.82;36.82
2681;BME280;1350;42.134;24.708;2023-04-28T13:15:38;99527.97;;;19.99;36.05
2681;BME280;1350;42.134;24.708;2023-04-28T13:18:04;99519.72;;;19.63;37.06
2681;BME280;1350;42.134;24.708;2023-04-28T13:20:31;99524.75;;;19.47;37.13